Latest Weather Observations for Gabo Island

IDV60801

Issued at 7:31 am EDT Tuesday 23 December 2014 (issued every 30 minutes, with the page automatically refreshed every 10 minutes)

About weather observations | Map of weather stations | Latest weather observations for VIC | Other Formats
Station Details ID: 084016 Name: GABO ISLAND LIGHTHOUSE Lat: -37.57 Lon: 149.92 Height: 15.2 m
Data from the previous 72 hours. | See also: Recent months at Gabo Island
Date/Time
EDT
Temp
°C
App
Temp
°C
Dew
Point
Rel
Hum
%
Delta-T
°C
Wind Press
QNH
hPa
Press
MSL
hPa
Rain
since 9 am
mm
Dir
 
Spd
km/h
Gust
km/h
Spd
kts
Gust
kts
23/07:30am 18.5 16.8 18.0 97 0.3 NNE 24 28 13 15 1011.8 - 2.4
23/07:00am 18.5 16.8 18.0 97 0.3 NNE 24 28 13 15 1011.9 - 2.2
23/06:30am 18.8 17.5 18.2 96 0.4 NNE 22 28 12 15 1011.8 - 1.4
23/06:00am 18.9 17.2 18.1 95 0.5 NNE 24 26 13 14 1011.7 1011.6 0.6
23/05:30am 19.2 17.2 18.2 94 0.6 NNE 26 32 14 17 1011.4 - 0.2
23/05:00am 19.5 16.2 18.4 93 0.7 NNE 33 41 18 22 1011.1 - 0.2
23/04:30am 19.8 15.0 18.4 92 0.9 NNE 41 52 22 28 1011.0 - 0.2
23/04:00am 20.2 15.0 18.3 89 1.2 NNE 43 54 23 29 1011.0 - 0.2
23/03:30am 20.2 14.8 18.3 89 1.2 NNE 44 52 24 28 1011.2 - 0.2
23/03:00am 20.0 14.8 18.4 90 1.0 NNE 43 50 23 27 1011.2 1011.2 0.2
23/02:30am 20.2 13.0 18.6 90 1.0 NNE 54 65 29 35 1011.2 - 0.0
23/02:00am 20.4 14.7 18.6 89 1.1 NNE 46 57 25 31 1011.5 - 0.0
23/01:53am 20.4 14.3 18.5 89 1.2 NNE 48 67 26 36 1011.5 - 0.0
23/01:30am 20.4 14.2 18.3 88 1.3 NNE 48 61 26 33 1011.5 - 0.0
23/01:00am 20.2 14.3 18.1 88 1.3 NNE 46 54 25 29 1011.5 - 0.0
23/12:30am 20.5 14.8 18.6 89 1.2 NNE 46 56 25 30 1011.5 - 0.0
23/12:00am 20.4 14.1 18.0 86 1.5 NNE 48 59 26 32 1011.0 1011.0 0.0
 
Date/Time
EDT
Temp
°C
App
Temp
°C
Dew
Point
Rel
Hum
%
Delta-T
°C
Wind Press
QNH
hPa
Press
MSL
hPa
Rain
since 9 am
mm
Dir
 
Spd
km/h
Gust
km/h
Spd
kts
Gust
kts
22/11:30pm 20.2 14.8 17.9 87 1.4 NNE 43 50 23 27 1011.2 - 0.0
22/11:00pm 20.6 17.2 18.2 86 1.5 NNE 33 44 18 24 1011.7 - 0.0
22/10:30pm 20.6 17.5 18.4 87 1.4 NNE 32 43 17 23 1011.8 - 0.0
22/10:00pm 20.8 18.6 18.7 88 1.3 NNE 28 59 15 32 1012.4 - 0.0
22/09:47pm 20.6 14.2 18.7 89 1.2 NNE 50 69 27 37 1011.7 - 0.0
22/09:30pm 20.7 13.3 19.0 90 1.1 NNE 56 72 30 39 1011.0 - 0.0
22/09:19pm 20.6 13.5 18.7 89 1.2 NNE 54 76 29 41 1010.8 - 0.0
22/09:00pm 20.4 16.1 18.6 89 1.1 NNE 39 50 21 27 1011.2 1011.3 0.0
22/08:30pm 19.9 16.3 18.6 92 0.8 NNE 35 41 19 22 1011.7 - 0.0
22/08:00pm 20.2 16.9 18.4 89 1.1 NNE 33 39 18 21 1011.8 - 0.0
22/07:30pm 20.7 17.4 18.3 86 1.5 NNE 33 39 18 21 1011.9 - 0.0
22/07:00pm 21.2 15.7 18.1 82 1.9 NNE 44 56 24 30 1011.7 - 0.0
22/06:30pm 21.2 18.4 18.1 82 1.9 NNE 30 39 16 21 1011.5 - 0.0
22/06:00pm 21.3 16.8 18.3 83 1.9 NNE 39 48 21 26 1011.2 1011.1 0.0
22/05:30pm 21.4 15.2 18.2 82 2.0 NNE 48 59 26 32 1010.7 - 0.0
22/05:00pm 21.5 16.4 18.5 83 1.9 NNE 43 54 23 29 1010.7 - 0.0
22/04:30pm 21.2 16.0 18.3 83 1.8 NE 43 54 23 29 1011.1 - 0.0
22/04:00pm 22.1 16.9 18.3 79 2.4 NE 43 50 23 27 1011.3 - 0.0
22/03:30pm 23.1 16.7 18.7 76 2.8 NNE 50 61 27 33 1011.6 - 0.0
22/03:00pm 22.3 15.7 18.3 78 2.5 NNE 50 61 27 33 1011.6 1011.6 0.0
22/02:30pm 22.8 15.9 18.5 77 2.7 NNE 52 61 28 33 1011.6 - 0.0
22/02:00pm 23.2 17.1 18.4 74 3.0 NNE 48 57 26 31 1011.7 - 0.0
22/01:30pm 23.2 17.4 18.4 74 3.0 NNE 46 57 25 31 1012.5 - 0.0
22/01:00pm 22.8 17.4 18.3 76 2.8 NE 44 52 24 28 1013.0 - 0.0
22/12:30pm 22.8 17.3 18.2 75 2.9 NNE 44 50 24 27 1013.2 - 0.0
22/12:00pm 22.9 17.6 18.1 74 3.0 NNE 43 48 23 26 1013.4 1013.4 0.0
22/11:30am 23.2 19.4 18.1 73 3.2 NE 35 46 19 25 1013.6 - 0.0
22/11:00am 23.2 19.9 18.4 74 3.0 NE 33 41 18 22 1013.7 - 0.0
22/10:30am 22.1 18.8 18.3 79 2.4 NE 33 39 18 21 1013.8 - 0.0
22/10:00am 22.3 19.2 18.3 78 2.5 NE 32 37 17 20 1013.9 - 0.0
22/09:30am 21.8 18.6 18.1 79 2.3 NNE 32 37 17 20 1013.8 - 0.0
22/09:00am 21.3 18.1 18.1 82 2.0 NNE 32 39 17 21 1014.0 1014.1 0.0
22/08:30am 20.5 17.7 18.2 87 1.4 NE 30 33 16 18 1014.0 - 0.0
22/08:00am 19.8 17.6 17.9 89 1.2 NE 26 30 14 16 1014.1 - 0.0
22/07:30am 19.8 17.6 17.9 89 1.2 NNE 26 30 14 16 1014.0 - 0.0
22/07:00am 19.6 17.0 17.8 89 1.1 NNE 28 33 15 18 1013.9 - 0.0
22/06:30am 19.1 17.3 17.8 92 0.8 NNE 24 28 13 15 1013.9 - 0.0
22/06:00am 18.5 17.8 17.3 93 0.7 NNE 17 20 9 11 1013.9 1013.8 0.0
22/05:30am 18.5 17.7 17.2 92 0.8 NNE 17 20 9 11 1013.6 - 0.0
22/05:00am 18.2 16.0 17.0 93 0.7 NNE 24 28 13 15 1013.4 - 0.0
22/04:30am 17.9 15.2 16.6 92 0.8 N 26 32 14 17 1013.4 - 0.0
22/04:00am 17.7 16.2 16.7 94 0.6 N 20 26 11 14 1013.6 - 0.0
22/03:30am 18.1 16.4 17.1 94 0.6 NNE 22 26 12 14 1013.8 - 0.0
22/03:00am 18.4 17.6 17.1 92 0.8 NNE 17 19 9 10 1014.3 1014.3 0.0
22/02:30am 18.1 17.6 16.9 93 0.7 NE 15 20 8 11 1014.3 - 0.0
22/02:00am 17.6 18.4 16.4 93 0.7 NNE 7 9 4 5 1014.5 - 0.0
22/01:30am 17.8 17.6 16.6 93 0.7 N 13 15 7 8 1014.4 - 0.0
22/01:00am 18.4 17.5 16.9 91 0.9 N 17 20 9 11 1014.4 - 0.0
22/12:30am 18.4 17.5 16.9 91 0.9 N 17 20 9 11 1014.5 - 0.0
22/12:00am 19.0 17.6 17.0 88 1.2 NNE 20 24 11 13 1014.4 1014.4 0.0
 
Date/Time
EDT
Temp
°C
App
Temp
°C
Dew
Point
Rel
Hum
%
Delta-T
°C
Wind Press
QNH
hPa
Press
MSL
hPa
Rain
since 9 am
mm
Dir
 
Spd
km/h
Gust
km/h
Spd
kts
Gust
kts
21/11:30pm 19.0 17.6 17.0 88 1.2 N 20 24 11 13 1014.5 - 0.0
21/11:00pm 19.1 16.5 16.9 87 1.3 NNE 26 30 14 16 1014.8 - 0.0
21/10:30pm 19.3 17.1 17.0 86 1.4 NNE 24 30 13 16 1014.8 - 0.0
21/10:00pm 19.4 16.8 16.9 85 1.5 NNE 26 32 14 17 1014.9 - 0.0
21/09:30pm 19.4 16.8 16.9 85 1.5 NNE 26 33 14 18 1014.8 - 0.0
21/09:00pm 19.6 17.7 16.8 84 1.7 NNE 22 28 12 15 1014.7 1014.8 0.0
21/08:30pm 19.8 18.4 17.0 84 1.7 NNE 20 26 11 14 1014.8 - 0.0
21/08:00pm 19.9 17.3 16.9 83 1.8 NNE 26 32 14 17 1014.7 - 0.0
21/07:30pm 20.2 16.5 16.9 81 2.0 NNE 32 37 17 20 1014.2 - 0.0
21/07:00pm 20.6 16.7 17.0 80 2.2 NNE 33 41 18 22 1014.0 - 0.0
21/06:30pm 20.9 15.8 16.8 77 2.5 NNE 39 46 21 25 1013.6 - 0.0
21/06:00pm 21.0 15.9 16.9 77 2.5 NNE 39 44 21 24 1013.8 1013.8 0.0
21/05:30pm 21.1 15.6 16.8 76 2.6 NNE 41 46 22 25 1013.9 - 0.0
21/05:00pm 21.3 16.2 16.9 76 2.7 NNE 39 44 21 24 1014.1 - 0.0
21/04:30pm 21.6 16.5 16.8 74 2.9 NNE 39 48 21 26 1014.2 - 0.0
21/04:00pm 21.8 15.7 16.7 73 3.1 NNE 44 50 24 27 1014.2 - 0.0
21/03:30pm 21.6 15.6 16.8 74 2.9 NNE 44 52 24 28 1014.4 - 0.0
21/03:00pm 21.6 16.5 16.8 74 2.9 NE 39 48 21 26 1014.7 1014.8 0.0
21/02:30pm 21.8 16.1 16.3 71 3.3 NNE 41 48 22 26 1014.8 - 0.0
21/02:00pm 21.5 15.9 16.6 73 3.0 NNE 41 50 22 27 1014.9 - 0.0
21/01:30pm 21.5 15.5 16.4 72 3.1 NNE 43 52 23 28 1015.1 - 0.0
21/01:00pm 21.3 16.1 16.5 74 2.9 NE 39 46 21 25 1015.3 - 0.0
21/12:30pm 21.0 16.2 16.7 76 2.6 NE 37 44 20 24 1015.7 - 0.0
21/12:00pm 21.1 16.6 16.5 75 2.8 NE 35 43 19 23 1015.9 1015.9 0.0
21/11:30am 19.9 14.8 15.9 78 2.4 NE 37 44 20 24 1016.1 - 0.0
21/11:00am 20.5 15.3 15.6 73 2.9 NE 37 44 20 24 1015.8 - 0.0
21/10:30am 21.1 15.8 15.4 70 3.4 NE 37 44 20 24 1016.0 - 0.0
21/10:00am 20.5 16.3 15.6 73 2.9 NE 32 35 17 19 1016.3 - 0.0
21/09:30am 19.7 16.0 14.9 74 2.8 NE 28 33 15 18 1016.5 - 0.0
21/09:00am 20.5 17.8 14.5 68 3.5 NNE 22 28 12 15 1016.8 1016.8 0.0
21/08:30am 19.6 16.1 14.4 72 3.0 NNE 26 32 14 17 1016.6 - 0.0
21/08:00am 18.4 17.0 14.6 78 2.2 NNE 15 26 8 14 1016.5 - 0.0
21/07:30am 16.5 16.4 13.3 81 1.8 NE 6 9 3 5 1016.5 - 0.0
21/07:00am 16.1 16.3 13.2 83 1.6 N 4 9 2 5 1016.5 - 0.0
21/06:30am 14.8 15.7 13.0 89 1.0 CALM 0 4 0 2 1016.4 - 0.0
21/06:00am 13.8 13.5 11.5 86 1.2 NNE 4 7 2 4 1016.1 1016.1 0.0
21/05:30am 13.7 14.1 11.2 85 1.3 CALM 0 0 0 0 1016.1 - 0.0
21/05:00am 13.6 12.4 11.7 88 1.0 WNW 9 11 5 6 1016.2 - 0.0
21/04:30am 13.6 12.1 11.9 89 0.9 WNW 11 13 6 7 1016.3 - 0.0
21/04:00am 13.7 11.8 11.8 88 1.0 WNW 13 15 7 8 1016.5 - 0.0
21/03:30am 14.1 12.7 12.1 88 1.1 WNW 11 13 6 7 1016.7 - 0.0
21/03:00am 14.7 13.5 11.7 82 1.6 WNW 9 11 5 6 1017.0 1017.0 0.0
21/02:30am 15.2 14.3 11.5 78 2.0 WNW 7 9 4 5 1017.1 - 0.0
21/02:00am 14.4 13.0 10.8 79 1.9 N 9 11 5 6 1017.3 - 0.0
21/01:30am 14.5 13.8 11.5 82 1.6 N 6 7 3 4 1017.5 - 0.0
21/01:00am 15.1 14.3 11.0 76 2.2 N 6 7 3 4 1017.8 - 0.0
21/12:30am 15.0 13.6 11.0 77 2.1 N 9 9 5 5 1018.0 - 0.0
21/12:00am 15.5 14.8 11.4 76 2.2 NNW 6 7 3 4 1018.1 1018.2 0.0
 
Date/Time
EDT
Temp
°C
App
Temp
°C
Dew
Point
Rel
Hum
%
Delta-T
°C
Wind Press
QNH
hPa
Press
MSL
hPa
Rain
since 9 am
mm
Dir
 
Spd
km/h
Gust
km/h
Spd
kts
Gust
kts
20/11:30pm 15.3 14.4 10.8 74 2.4 N 6 9 3 5 1018.3 - 0.0
20/11:00pm 15.6 14.9 11.5 76 2.2 N 6 6 3 3 1018.5 - 0.0
20/10:30pm 15.0 14.3 12.0 82 1.6 N 7 11 4 6 1018.5 - 0.0
20/10:00pm 15.4 14.9 12.1 81 1.8 NW 6 7 3 4 1018.5 - 0.0
20/09:30pm 17.0 16.1 12.7 76 2.4 SW 9 13 5 7 1018.4 - 0.0
20/09:00pm 17.5 14.8 12.8 74 2.6 SW 19 20 10 11 1018.0 1018.0 0.0
20/08:30pm 17.5 13.6 12.2 71 2.9 SSW 24 28 13 15 1017.6 - 0.0
20/08:00pm 17.9 13.7 12.3 70 3.1 SSW 26 32 14 17 1017.4 - 0.0
20/07:30pm 17.7 13.1 12.3 70 3.0 SSW 28 33 15 18 1017.1 - 0.0
20/07:00pm 17.9 12.9 12.1 69 3.2 SSW 30 35 16 19 1016.8 - 0.0
20/06:30pm 17.8 12.2 11.4 66 3.5 SSW 32 37 17 20 1016.6 - 0.0
20/06:00pm 17.8 12.1 11.8 68 3.3 SSW 33 39 18 21 1016.4 1016.5 0.0
20/05:30pm 17.8 11.0 10.7 63 3.8 SSW 37 41 20 22 1016.4 - 0.0
20/05:00pm 17.6 10.9 11.1 65 3.5 SSW 37 44 20 24 1016.4 - 0.0
20/04:30pm 17.5 9.7 11.2 66 3.4 SSW 43 50 23 27 1016.4 - 0.0
20/04:00pm 17.7 9.4 11.4 66 3.4 SSW 46 54 25 29 1016.5 - 0.0
20/03:30pm 17.6 9.4 10.5 63 3.8 SSW 44 52 24 28 1016.8 - 0.0
20/03:00pm 17.9 9.5 11.1 64 3.7 SSW 46 52 25 28 1016.8 1016.7 0.0
20/02:30pm 18.1 9.8 11.3 64 3.7 SSW 46 54 25 29 1016.7 - 0.0
20/02:00pm 17.6 8.9 10.0 61 4.0 SSW 46 54 25 29 1016.8 - 0.0
20/01:30pm 17.5 9.1 9.0 57 4.4 SSW 43 50 23 27 1017.1 - 0.0
20/01:00pm 17.8 10.1 8.5 54 4.8 SSW 39 44 21 24 1017.3 - 0.0
20/12:30pm 17.9 9.8 8.6 54 4.8 SW 41 46 22 25 1017.6 - 0.0
20/12:00pm 17.7 11.1 8.6 55 4.7 SSW 33 39 18 21 1017.7 1017.7 0.0
20/11:30am 18.0 12.5 9.2 56 4.6 SSW 28 32 15 17 1017.7 - 0.0
20/11:00am 19.8 15.8 8.9 49 5.7 WSW 20 26 11 14 1017.8 - 0.0
20/10:30am 19.2 14.9 7.9 48 5.8 W 20 28 11 15 1017.6 - 0.0
20/10:00am 18.7 14.1 8.2 50 5.4 W 22 26 12 14 1017.7 - 0.0
20/09:30am 17.8 13.5 8.0 52 5.0 W 20 26 11 14 1017.9 - 0.0
20/09:00am 17.2 12.6 8.1 55 4.6 W 22 28 12 15 1018.0 1018.1 0.0
20/08:30am 16.2 11.7 8.5 60 3.9 W 22 28 12 15 1017.9 - 0.0
20/08:00am 15.6 11.0 8.3 62 3.7 W 22 28 12 15 1017.6 - 0.0

Other Formats:

Comma delimited format used in spreadsheet applications
http://www.bom.gov.au/fwo/IDV60801/IDV60801.94933.axf

JavaScript Object Notation format (JSON) in row-major order
http://www.bom.gov.au/fwo/IDV60801/IDV60801.94933.json